createdAt,value
2019-04-28T00:00:09.032Z,1008.97
2019-04-28T00:01:09.022Z,1008.95
2019-04-28T00:02:10.938Z,1009.00
2019-04-28T00:03:10.761Z,1009.01
2019-04-28T00:04:08.989Z,1008.99
2019-04-28T00:05:08.977Z,1008.97
2019-04-28T00:06:08.968Z,1009.00
2019-04-28T00:07:08.955Z,1009.02
2019-04-28T00:08:10.781Z,1009.04
2019-04-28T00:09:08.933Z,1009.02
2019-04-28T00:10:08.922Z,1009.08
2019-04-28T00:11:08.911Z,1009.08
2019-04-28T00:12:08.900Z,1009.01
2019-04-28T00:13:08.890Z,1009.11
2019-04-28T00:14:08.909Z,1009.14
2019-04-28T00:15:10.768Z,1009.12
2019-04-28T00:16:08.856Z,1009.14
2019-04-28T00:17:08.845Z,1009.20
2019-04-28T00:18:08.834Z,1009.16
2019-04-28T00:19:09.285Z,1009.21
2019-04-28T00:20:08.818Z,1009.19
2019-04-28T00:21:08.802Z,1009.21
2019-04-28T00:22:08.789Z,1009.22
2019-04-28T00:23:08.779Z,1009.23
2019-04-28T00:24:08.769Z,1009.18
2019-04-28T00:25:08.757Z,1009.20
2019-04-28T00:26:08.754Z,1009.12
2019-04-28T00:27:08.734Z,1009.14
2019-04-28T00:28:08.723Z,1009.10
2019-04-28T00:29:08.713Z,1009.12
2019-04-28T00:30:08.707Z,1009.08
2019-04-28T00:31:08.690Z,1009.06
2019-04-28T00:32:08.700Z,1009.09
2019-04-28T00:33:08.668Z,1009.11
2019-04-28T00:34:08.658Z,1009.11
2019-04-28T00:35:08.647Z,1009.13
2019-04-28T00:36:08.635Z,1009.13
2019-04-28T00:37:08.624Z,1009.12
2019-04-28T00:38:08.619Z,1009.13
2019-04-28T00:39:08.603Z,1009.14
2019-04-28T00:40:08.592Z,1009.11
2019-04-28T00:41:08.583Z,1009.12
2019-04-28T00:42:08.569Z,1009.10
2019-04-28T00:43:08.558Z,1009.11
2019-04-28T00:44:08.577Z,1009.12
2019-04-28T00:45:08.537Z,1009.11
2019-04-28T00:46:08.528Z,1009.11
2019-04-28T00:47:08.515Z,1009.12
2019-04-28T00:48:08.506Z,1009.15
2019-04-28T00:49:08.492Z,1009.12
2019-04-28T00:50:08.493Z,1009.14
2019-04-28T00:51:08.471Z,1009.13
2019-04-28T00:52:08.459Z,1009.12
2019-04-28T00:53:08.454Z,1009.16
2019-04-28T00:54:08.440Z,1009.13
2019-04-28T00:55:08.427Z,1009.14
2019-04-28T00:56:08.438Z,1009.13
2019-04-28T00:57:08.406Z,1009.16
2019-04-28T00:58:08.394Z,1009.16
2019-04-28T00:59:08.385Z,1009.20
2019-04-28T01:00:08.372Z,1009.20
2019-04-28T01:01:08.362Z,1009.18
2019-04-28T01:02:08.356Z,1009.18
2019-04-28T01:03:08.340Z,1009.18
2019-04-28T01:04:08.327Z,1009.19
2019-04-28T01:05:08.317Z,1009.27
2019-04-28T01:06:08.306Z,1009.21
2019-04-28T01:07:08.294Z,1009.24
2019-04-28T01:08:08.292Z,1009.27
2019-04-28T01:09:08.272Z,1009.24
2019-04-28T01:10:08.262Z,1009.29
2019-04-28T01:11:08.250Z,1009.28
2019-04-28T01:12:08.241Z,1009.31
2019-04-28T01:13:08.228Z,1009.31
2019-04-28T01:14:08.223Z,1009.31
2019-04-28T01:15:10.126Z,1009.31
2019-04-28T01:16:09.410Z,1009.32
2019-04-28T01:17:09.772Z,1009.33
2019-04-28T01:18:08.179Z,1009.35
2019-04-28T01:19:10.049Z,1009.33
2019-04-28T01:20:09.783Z,1009.34
2019-04-28T01:21:08.139Z,1009.36
2019-04-28T01:22:10.110Z,1009.36
2019-04-28T01:23:08.118Z,1009.36
2019-04-28T01:24:09.508Z,1009.40
2019-04-28T01:25:08.096Z,1009.44
2019-04-28T01:26:09.857Z,1009.42
2019-04-28T01:27:08.074Z,1009.44
2019-04-28T01:28:09.764Z,1009.43
2019-04-28T01:29:09.581Z,1009.43
2019-04-28T01:30:10.686Z,1009.43
2019-04-28T01:31:09.578Z,1009.46
2019-04-28T01:32:08.026Z,1009.44
2019-04-28T01:33:09.619Z,1009.46
2019-04-28T01:34:07.997Z,1009.46
2019-04-28T01:35:09.505Z,1009.44
2019-04-28T01:36:07.975Z,1009.44
2019-04-28T01:37:09.669Z,1009.44
2019-04-28T01:38:07.964Z,1009.49
2019-04-28T01:39:09.936Z,1009.44
2019-04-28T01:40:09.522Z,1009.44
2019-04-28T01:41:09.702Z,1009.43
2019-04-28T01:42:07.908Z,1009.48
2019-04-28T01:43:09.617Z,1009.45
2019-04-28T01:44:07.893Z,1009.48
2019-04-28T01:45:07.875Z,1009.45
2019-04-28T01:46:07.865Z,1009.47
2019-04-28T01:47:07.853Z,1009.48
2019-04-28T01:48:07.842Z,1009.50
2019-04-28T01:49:09.539Z,1009.51
2019-04-28T01:50:07.827Z,1009.51
2019-04-28T01:51:09.444Z,1009.56
2019-04-28T01:52:07.799Z,1009.52
2019-04-28T01:53:09.366Z,1009.51
2019-04-28T01:54:07.776Z,1009.56
2019-04-28T01:55:07.766Z,1009.56
2019-04-28T01:56:07.787Z,1009.51
2019-04-28T01:57:07.744Z,1009.52
2019-04-28T01:58:09.489Z,1009.50
2019-04-28T01:59:07.723Z,1009.52
2019-04-28T02:00:21.402Z,1009.51
2019-04-28T02:01:10.208Z,1009.50
2019-04-28T02:02:07.694Z,1009.51
2019-04-28T02:03:07.678Z,1009.50
2019-04-28T02:04:07.669Z,1009.49
2019-04-28T02:05:09.643Z,1009.54
2019-04-28T02:06:07.645Z,1009.52
2019-04-28T02:07:07.663Z,1009.54
2019-04-28T02:08:07.622Z,1009.60
2019-04-28T02:09:09.631Z,1009.64
2019-04-28T02:10:07.600Z,1009.63
2019-04-28T02:11:07.590Z,1009.63
2019-04-28T02:12:07.581Z,1009.64
2019-04-28T02:13:07.574Z,1009.63
2019-04-28T02:14:09.553Z,1009.61
2019-04-28T02:15:07.546Z,1009.60
2019-04-28T02:16:09.612Z,1009.66
2019-04-28T02:17:07.524Z,1009.68
2019-04-28T02:18:07.512Z,1009.70
2019-04-28T02:19:07.509Z,1009.70
2019-04-28T02:20:07.491Z,1009.69
2019-04-28T02:21:07.479Z,1009.67
2019-04-28T02:22:07.472Z,1009.67
2019-04-28T02:23:07.457Z,1009.74
2019-04-28T02:24:09.538Z,1009.73
2019-04-28T02:25:07.443Z,1009.76
2019-04-28T02:26:07.424Z,1009.77
2019-04-28T02:27:07.414Z,1009.74
2019-04-28T02:28:07.402Z,1009.73
2019-04-28T02:29:07.392Z,1009.74
2019-04-28T02:30:07.381Z,1009.75
2019-04-28T02:31:07.403Z,1009.77
2019-04-28T02:32:07.363Z,1009.78
2019-04-28T02:33:07.348Z,1009.80
2019-04-28T02:34:07.337Z,1009.85
2019-04-28T02:35:09.842Z,1009.83
2019-04-28T02:36:08.792Z,1009.87
2019-04-28T02:37:07.324Z,1009.90
2019-04-28T02:38:07.293Z,1009.91
2019-04-28T02:39:07.291Z,1009.91
2019-04-28T02:40:07.270Z,1009.93
2019-04-28T02:41:07.260Z,1009.91
2019-04-28T02:42:07.262Z,1009.93
2019-04-28T02:43:07.244Z,1009.95
2019-04-28T02:44:07.225Z,1009.93
2019-04-28T02:45:07.216Z,1009.97
2019-04-28T02:46:07.206Z,1009.96
2019-04-28T02:47:07.192Z,1009.95
2019-04-28T02:48:07.181Z,1009.98
2019-04-28T02:49:07.204Z,1010.03
2019-04-28T02:50:07.160Z,1009.99
2019-04-28T02:51:07.150Z,1010.01
2019-04-28T02:52:07.137Z,1010.04
2019-04-28T02:53:07.130Z,1010.06
2019-04-28T02:54:07.117Z,1010.03
2019-04-28T02:55:07.113Z,1010.11
2019-04-28T02:56:07.094Z,1010.11
2019-04-28T02:57:07.086Z,1010.13
2019-04-28T02:58:07.071Z,1010.15
2019-04-28T02:59:07.064Z,1010.16
2019-04-28T03:00:07.050Z,1010.11
2019-04-28T03:01:18.511Z,1010.20
2019-04-28T03:02:10.374Z,1010.21
2019-04-28T03:03:07.022Z,1010.22
2019-04-28T03:04:07.007Z,1010.20
2019-04-28T03:05:06.993Z,1010.23
2019-04-28T03:06:06.983Z,1010.24
2019-04-28T03:07:06.982Z,1010.25
2019-04-28T03:08:06.965Z,1010.27
2019-04-28T03:09:06.952Z,1010.31
2019-04-28T03:10:06.946Z,1010.29
2019-04-28T03:11:06.931Z,1010.32
2019-04-28T03:12:06.921Z,1010.29
2019-04-28T03:13:06.927Z,1010.34
2019-04-28T03:14:06.897Z,1010.31
2019-04-28T03:15:06.884Z,1010.31
2019-04-28T03:16:06.876Z,1010.35
2019-04-28T03:17:06.863Z,1010.31
2019-04-28T03:18:06.852Z,1010.29
2019-04-28T03:19:06.848Z,1010.32
2019-04-28T03:20:06.837Z,1010.36
2019-04-28T03:21:06.820Z,1010.37
2019-04-28T03:22:06.809Z,1010.37
2019-04-28T03:23:09.125Z,1010.39
2019-04-28T03:24:07.816Z,1010.37
2019-04-28T03:25:06.774Z,1010.39
2019-04-28T03:26:06.767Z,1010.38
2019-04-28T03:27:06.752Z,1010.37
2019-04-28T03:28:06.743Z,1010.34
2019-04-28T03:29:06.731Z,1010.34
2019-04-28T03:30:06.727Z,1010.33
2019-04-28T03:31:36.607Z,1010.32
2019-04-28T03:32:28.789Z,1010.33
2019-04-28T03:33:17.004Z,1010.29
2019-04-28T03:34:07.674Z,1010.31
2019-04-28T03:35:06.700Z,1010.25
2019-04-28T03:36:08.765Z,1010.30
2019-04-28T03:37:06.645Z,1010.31
2019-04-28T03:38:06.634Z,1010.32
2019-04-28T03:39:06.641Z,1010.32
2019-04-28T03:40:06.615Z,1010.30
2019-04-28T03:41:06.600Z,1010.30
2019-04-28T03:42:06.594Z,1010.33
2019-04-28T03:43:06.578Z,1010.32
2019-04-28T03:44:06.574Z,1010.34
2019-04-28T03:45:06.555Z,1010.34
2019-04-28T03:46:06.543Z,1010.35
2019-04-28T03:47:06.536Z,1010.38
2019-04-28T03:48:06.555Z,1010.41
2019-04-28T03:49:06.511Z,1010.44
2019-04-28T03:50:06.501Z,1010.47
2019-04-28T03:51:06.489Z,1010.45
2019-04-28T03:52:06.478Z,1010.45
2019-04-28T03:53:06.468Z,1010.49
2019-04-28T03:54:06.463Z,1010.52
2019-04-28T03:55:06.445Z,1010.52
2019-04-28T03:56:06.435Z,1010.45
2019-04-28T03:57:06.424Z,1010.50
2019-04-28T03:58:06.411Z,1010.49
2019-04-28T03:59:06.402Z,1010.53
2019-04-28T04:00:06.425Z,1010.52
2019-04-28T04:01:06.379Z,1010.56
2019-04-28T04:02:06.367Z,1010.55
2019-04-28T04:03:06.356Z,1010.59
2019-04-28T04:04:06.345Z,1010.62
2019-04-28T04:05:06.334Z,1010.59
2019-04-28T04:06:06.331Z,1010.61
2019-04-28T04:07:06.314Z,1010.60
2019-04-28T04:08:06.301Z,1010.62
2019-04-28T04:09:06.293Z,1010.63
2019-04-28T04:10:06.284Z,1010.65
2019-04-28T04:11:06.269Z,1010.61
2019-04-28T04:12:06.292Z,1010.61
2019-04-28T04:13:06.247Z,1010.61
2019-04-28T04:14:06.238Z,1010.60
2019-04-28T04:15:06.225Z,1010.67
2019-04-28T04:16:06.213Z,1010.68
2019-04-28T04:17:06.206Z,1010.72
2019-04-28T04:18:06.199Z,1010.73
2019-04-28T04:19:06.179Z,1010.75
2019-04-28T04:20:06.170Z,1010.81
2019-04-28T04:21:06.160Z,1010.83
2019-04-28T04:22:06.150Z,1010.81
2019-04-28T04:23:06.136Z,1010.81
2019-04-28T04:24:06.146Z,1010.89
2019-04-28T04:25:08.921Z,1010.87
2019-04-28T04:26:07.104Z,1010.91
2019-04-28T04:27:06.093Z,1010.90
2019-04-28T04:28:06.105Z,1010.84
2019-04-28T04:29:06.076Z,1010.87
2019-04-28T04:30:06.071Z,1010.88
2019-04-28T04:31:06.051Z,1010.90
2019-04-28T04:32:15.635Z,1010.84
2019-04-28T04:33:07.026Z,1010.83
2019-04-28T04:34:06.030Z,1010.82
2019-04-28T04:35:06.003Z,1010.87
2019-04-28T04:36:06.022Z,1010.89
2019-04-28T04:37:05.988Z,1010.88
2019-04-28T04:38:05.972Z,1010.89
2019-04-28T04:39:05.960Z,1010.92
2019-04-28T04:40:05.950Z,1010.96
2019-04-28T04:41:05.939Z,1010.96
2019-04-28T04:42:05.936Z,1010.99
2019-04-28T04:43:05.923Z,1011.05
2019-04-28T04:44:05.906Z,1011.07
2019-04-28T04:45:05.894Z,1011.09
2019-04-28T04:46:05.884Z,1011.09
2019-04-28T04:47:05.871Z,1011.15
2019-04-28T04:48:05.897Z,1011.17
2019-04-28T04:49:05.850Z,1011.20
2019-04-28T04:50:05.841Z,1011.18
2019-04-28T04:51:05.832Z,1011.25
2019-04-28T04:52:05.817Z,1011.21
2019-04-28T04:53:05.807Z,1011.21
2019-04-28T04:54:05.802Z,1011.20
2019-04-28T04:55:05.785Z,1011.25
2019-04-28T04:56:05.774Z,1011.20
2019-04-28T04:57:05.761Z,1011.23
2019-04-28T04:58:05.753Z,1011.20
2019-04-28T04:59:05.742Z,1011.21
2019-04-28T05:00:05.749Z,1011.18
2019-04-28T05:01:05.726Z,1011.17
2019-04-28T05:02:05.707Z,1011.18
2019-04-28T05:03:05.696Z,1011.21
2019-04-28T05:04:05.685Z,1011.23
2019-04-28T05:05:05.673Z,1011.26
2019-04-28T05:06:05.668Z,1011.28
2019-04-28T05:07:05.651Z,1011.30
2019-04-28T05:08:05.641Z,1011.29
2019-04-28T05:09:05.634Z,1011.30
2019-04-28T05:10:05.619Z,1011.32
2019-04-28T05:11:05.607Z,1011.33
2019-04-28T05:12:05.626Z,1011.33
2019-04-28T05:13:05.587Z,1011.34
2019-04-28T05:14:07.488Z,1011.36
2019-04-28T05:15:05.566Z,1011.39
2019-04-28T05:16:05.554Z,1011.39
2019-04-28T05:17:05.539Z,1011.39
2019-04-28T05:18:05.537Z,1011.42
2019-04-28T05:19:05.519Z,1011.40
2019-04-28T05:20:05.507Z,1011.43
2019-04-28T05:21:05.496Z,1011.46
2019-04-28T05:22:05.486Z,1011.47
2019-04-28T05:23:05.474Z,1011.46
2019-04-28T05:24:09.244Z,1011.45
2019-04-28T05:25:06.450Z,1011.49
2019-04-28T05:26:08.151Z,1011.55
2019-04-28T05:27:06.428Z,1011.61
2019-04-28T05:28:05.417Z,1011.61
2019-04-28T05:29:05.408Z,1011.62
2019-04-28T05:30:05.564Z,1011.69
2019-04-28T05:31:05.387Z,1011.73
2019-04-28T05:32:05.376Z,1011.71
2019-04-28T05:33:05.363Z,1011.79
2019-04-28T05:34:08.105Z,1011.84
2019-04-28T05:35:05.342Z,1011.81
2019-04-28T05:36:05.353Z,1011.82
2019-04-28T05:37:05.319Z,1011.85
2019-04-28T05:38:05.308Z,1011.89
2019-04-28T05:39:05.298Z,1011.88
2019-04-28T05:40:05.286Z,1011.92
2019-04-28T05:41:05.283Z,1011.96
2019-04-28T05:42:05.295Z,1011.95
2019-04-28T05:43:05.253Z,1011.92
2019-04-28T05:44:05.243Z,1011.95
2019-04-28T05:45:05.232Z,1011.95
2019-04-28T05:46:05.221Z,1011.95
2019-04-28T05:47:05.209Z,1011.95
2019-04-28T05:48:05.210Z,1011.98
2019-04-28T05:49:05.188Z,1011.98
2019-04-28T05:50:05.176Z,1011.98
2019-04-28T05:51:05.165Z,1011.96
2019-04-28T05:52:05.157Z,1011.95
2019-04-28T05:53:05.146Z,1011.96
2019-04-28T05:54:05.137Z,1011.96
2019-04-28T05:55:05.121Z,1011.98
2019-04-28T05:56:05.109Z,1011.95
2019-04-28T05:57:05.099Z,1011.94
2019-04-28T05:58:05.090Z,1011.96
2019-04-28T05:59:05.078Z,1011.97
2019-04-28T06:00:05.096Z,1011.94
2019-04-28T06:01:05.055Z,1011.89
2019-04-28T06:02:05.044Z,1011.91
2019-04-28T06:03:05.033Z,1011.91
2019-04-28T06:04:05.021Z,1011.89
2019-04-28T06:05:05.011Z,1011.96
2019-04-28T06:06:05.008Z,1011.91
2019-04-28T06:07:04.988Z,1011.94
2019-04-28T06:08:04.978Z,1011.96
2019-04-28T06:09:04.979Z,1011.93
2019-04-28T06:10:04.956Z,1012.00
2019-04-28T06:11:04.947Z,1011.98
2019-04-28T06:12:04.970Z,1011.97
2019-04-28T06:13:04.925Z,1011.95
2019-04-28T06:14:04.910Z,1012.01
2019-04-28T06:15:04.900Z,1012.04
2019-04-28T06:16:04.889Z,1011.96
2019-04-28T06:17:04.909Z,1011.99
2019-04-28T06:18:04.890Z,1012.03
2019-04-28T06:19:04.857Z,1012.01
2019-04-28T06:20:04.844Z,1012.01
2019-04-28T06:21:04.834Z,1012.00
2019-04-28T06:22:04.822Z,1012.00
2019-04-28T06:23:04.811Z,1012.02
2019-04-28T06:24:04.811Z,1011.96
2019-04-28T06:25:04.795Z,1011.99
2019-04-28T06:26:04.780Z,1011.95
2019-04-28T06:27:04.767Z,1011.98
2019-04-28T06:28:04.757Z,1011.98
2019-04-28T06:29:04.749Z,1011.98
2019-04-28T06:30:04.740Z,1011.98
2019-04-28T06:31:04.728Z,1012.01
2019-04-28T06:32:04.712Z,1012.00
2019-04-28T06:33:08.128Z,1012.01
2019-04-28T06:34:04.691Z,1012.06
2019-04-28T06:35:04.680Z,1012.02
2019-04-28T06:36:04.702Z,1012.03
2019-04-28T06:37:04.660Z,1012.03
2019-04-28T06:38:04.652Z,1012.03
2019-04-28T06:39:04.635Z,1012.05
2019-04-28T06:40:04.624Z,1012.00
2019-04-28T06:41:04.622Z,1012.04
2019-04-28T06:42:04.608Z,1012.03
2019-04-28T06:43:04.591Z,1012.04
2019-04-28T06:44:04.579Z,1012.06
2019-04-28T06:45:04.571Z,1012.09
2019-04-28T06:46:04.558Z,1012.09
2019-04-28T06:47:04.547Z,1012.07
2019-04-28T06:48:04.556Z,1012.12
2019-04-28T06:49:04.524Z,1012.12
2019-04-28T06:50:04.515Z,1012.13
2019-04-28T06:51:04.502Z,1012.09
2019-04-28T06:52:04.491Z,1012.14
2019-04-28T06:53:04.481Z,1012.15
2019-04-28T06:54:04.476Z,1012.15
2019-04-28T06:55:04.458Z,1012.18
2019-04-28T06:56:04.448Z,1012.18
2019-04-28T06:57:04.435Z,1012.18
2019-04-28T06:58:04.426Z,1012.22
2019-04-28T06:59:04.415Z,1012.24
2019-04-28T07:00:04.437Z,1012.24
2019-04-28T07:01:04.393Z,1012.23
2019-04-28T07:02:04.381Z,1012.29
2019-04-28T07:03:04.372Z,1012.25
2019-04-28T07:04:04.358Z,1012.24
2019-04-28T07:05:04.352Z,1012.26
2019-04-28T07:06:04.344Z,1012.25
2019-04-28T07:07:04.325Z,1012.24
2019-04-28T07:08:04.316Z,1012.26
2019-04-28T07:09:04.304Z,1012.26
2019-04-28T07:10:04.292Z,1012.23
2019-04-28T07:11:04.281Z,1012.23
2019-04-28T07:12:04.299Z,1012.23
2019-04-28T07:13:04.260Z,1012.26
2019-04-28T07:14:04.248Z,1012.24
2019-04-28T07:15:04.238Z,1012.25
2019-04-28T07:16:04.228Z,1012.26
2019-04-28T07:17:04.215Z,1012.30
2019-04-28T07:18:04.212Z,1012.28
2019-04-28T07:19:04.196Z,1012.31
2019-04-28T07:20:04.182Z,1012.30
2019-04-28T07:21:04.171Z,1012.27
2019-04-28T07:22:04.160Z,1012.28
2019-04-28T07:23:04.148Z,1012.30
2019-04-28T07:24:04.175Z,1012.28
2019-04-28T07:25:04.126Z,1012.31
2019-04-28T07:26:04.115Z,1012.31
2019-04-28T07:27:04.104Z,1012.31
2019-04-28T07:28:04.092Z,1012.32
2019-04-28T07:29:04.082Z,1012.31
2019-04-28T07:30:04.121Z,1012.31
2019-04-28T07:31:04.060Z,1012.29
2019-04-28T07:32:04.049Z,1012.30
2019-04-28T07:33:04.038Z,1012.31
2019-04-28T07:34:04.026Z,1012.30
2019-04-28T07:35:04.015Z,1012.34
2019-04-28T07:36:04.012Z,1012.37
2019-04-28T07:37:03.995Z,1012.36
2019-04-28T07:38:03.983Z,1012.37
2019-04-28T07:39:03.971Z,1012.42
2019-04-28T07:40:03.960Z,1012.41
2019-04-28T07:41:04.011Z,1012.38
2019-04-28T07:42:03.946Z,1012.40
2019-04-28T07:43:03.927Z,1012.46
2019-04-28T07:44:03.916Z,1012.41
2019-04-28T07:45:03.905Z,1012.51
2019-04-28T07:46:03.895Z,1012.50
2019-04-28T07:47:03.884Z,1012.54
2019-04-28T07:48:03.899Z,1012.55
2019-04-28T07:49:03.909Z,1012.59
2019-04-28T07:50:03.853Z,1012.59
2019-04-28T07:51:03.842Z,1012.58
2019-04-28T07:52:03.828Z,1012.63
2019-04-28T07:53:03.830Z,1012.58
2019-04-28T07:54:04.926Z,1012.64
2019-04-28T07:55:03.800Z,1012.67
2019-04-28T07:56:03.804Z,1012.67
2019-04-28T07:57:03.772Z,1012.73
2019-04-28T07:58:03.762Z,1012.73
2019-04-28T07:59:03.750Z,1012.71
2019-04-28T08:00:03.792Z,1012.73
2019-04-28T08:01:03.729Z,1012.73
2019-04-28T08:02:03.720Z,1012.73
2019-04-28T08:03:03.708Z,1012.80
2019-04-28T08:04:03.696Z,1012.78
2019-04-28T08:05:03.684Z,1012.82
2019-04-28T08:06:03.680Z,1012.78
2019-04-28T08:07:03.662Z,1012.79
2019-04-28T08:08:03.655Z,1012.80
2019-04-28T08:09:03.641Z,1012.81
2019-04-28T08:10:03.629Z,1012.80
2019-04-28T08:11:03.618Z,1012.85
2019-04-28T08:12:03.613Z,1012.87
2019-04-28T08:13:03.598Z,1012.86
2019-04-28T08:14:03.585Z,1012.85
2019-04-28T08:15:03.575Z,1012.92
2019-04-28T08:16:03.564Z,1012.97
2019-04-28T08:17:03.552Z,1012.96
2019-04-28T08:18:03.548Z,1013.03
2019-04-28T08:19:03.532Z,1013.02
2019-04-28T08:20:05.684Z,1013.02
2019-04-28T08:21:03.544Z,1013.02
2019-04-28T08:22:03.497Z,1013.03
2019-04-28T08:23:03.486Z,1013.04
2019-04-28T08:24:03.508Z,1013.06
2019-04-28T08:25:03.465Z,1013.03
2019-04-28T08:26:03.456Z,1013.07
2019-04-28T08:27:03.445Z,1013.01
2019-04-28T08:28:03.431Z,1013.08
2019-04-28T08:29:03.421Z,1013.12
2019-04-28T08:30:03.416Z,1013.12
2019-04-28T08:31:03.398Z,1013.12
2019-04-28T08:32:03.388Z,1013.12
2019-04-28T08:33:03.377Z,1013.19
2019-04-28T08:34:03.366Z,1013.23
2019-04-28T08:35:03.354Z,1013.26
2019-04-28T08:36:03.372Z,1013.23
2019-04-28T08:37:03.332Z,1013.25
2019-04-28T08:38:03.321Z,1013.29
2019-04-28T08:39:03.310Z,1013.28
2019-04-28T08:40:03.303Z,1013.29
2019-04-28T08:41:03.291Z,1013.31
2019-04-28T08:42:03.290Z,1013.35
2019-04-28T08:43:03.267Z,1013.34
2019-04-28T08:44:03.255Z,1013.35
2019-04-28T08:45:03.246Z,1013.34
2019-04-28T08:46:03.233Z,1013.38
2019-04-28T08:47:03.222Z,1013.38
2019-04-28T08:48:03.219Z,1013.40
2019-04-28T08:49:03.201Z,1013.42
2019-04-28T08:50:03.194Z,1013.44
2019-04-28T08:51:03.179Z,1013.45
2019-04-28T08:52:03.167Z,1013.45
2019-04-28T08:53:03.160Z,1013.46
2019-04-28T08:54:03.175Z,1013.46
2019-04-28T08:55:03.136Z,1013.52
2019-04-28T08:56:03.124Z,1013.55
2019-04-28T08:57:03.112Z,1013.55
2019-04-28T08:58:03.101Z,1013.59
2019-04-28T08:59:04.945Z,1013.63
2019-04-28T09:00:03.086Z,1013.66
2019-04-28T09:01:03.069Z,1013.66
2019-04-28T09:02:03.057Z,1013.65
2019-04-28T09:03:03.046Z,1013.65
2019-04-28T09:04:14.793Z,1013.68
2019-04-28T09:05:04.056Z,1013.63
2019-04-28T09:06:03.013Z,1013.71
2019-04-28T09:07:03.001Z,1013.70
2019-04-28T09:08:02.990Z,1013.68
2019-04-28T09:09:02.979Z,1013.69
2019-04-28T09:10:02.968Z,1013.67
2019-04-28T09:11:02.987Z,1013.68
2019-04-28T09:12:02.946Z,1013.70
2019-04-28T09:13:02.936Z,1013.72
2019-04-28T09:14:02.929Z,1013.72
2019-04-28T09:15:02.913Z,1013.72
2019-04-28T09:16:02.903Z,1013.73
2019-04-28T09:17:02.898Z,1013.76
2019-04-28T09:18:02.881Z,1013.71
2019-04-28T09:19:02.869Z,1013.68
2019-04-28T09:20:02.859Z,1013.72
2019-04-28T09:21:02.849Z,1013.76
2019-04-28T09:22:02.837Z,1013.75
2019-04-28T09:23:02.833Z,1013.75
2019-04-28T09:24:02.815Z,1013.79
2019-04-28T09:25:02.807Z,1013.76
2019-04-28T09:26:02.795Z,1013.74
2019-04-28T09:27:02.783Z,1013.80
2019-04-28T09:28:02.770Z,1013.78
2019-04-28T09:29:02.766Z,1013.85
2019-04-28T09:30:02.750Z,1013.79
2019-04-28T09:31:02.738Z,1013.81
2019-04-28T09:32:02.727Z,1013.87
2019-04-28T09:33:02.716Z,1013.80
2019-04-28T09:34:02.705Z,1013.82
2019-04-28T09:35:02.700Z,1013.84
2019-04-28T09:36:02.686Z,1013.83
2019-04-28T09:37:02.672Z,1013.83
2019-04-28T09:38:02.663Z,1013.82
2019-04-28T09:39:02.650Z,1013.87
2019-04-28T09:40:02.639Z,1013.87
2019-04-28T09:41:02.634Z,1013.86
2019-04-28T09:42:02.617Z,1013.87
2019-04-28T09:43:02.606Z,1013.91
2019-04-28T09:44:02.594Z,1013.92
2019-04-28T09:45:02.584Z,1013.96
2019-04-28T09:46:02.574Z,1013.93
2019-04-28T09:47:02.585Z,1013.94
2019-04-28T09:48:02.553Z,1013.97
2019-04-28T09:49:02.540Z,1013.97
2019-04-28T09:50:02.528Z,1014.01
2019-04-28T09:51:02.518Z,1013.98
2019-04-28T09:52:02.509Z,1014.02
2019-04-28T09:53:02.532Z,1014.00
2019-04-28T09:54:02.486Z,1014.05
2019-04-28T09:55:02.475Z,1014.03
2019-04-28T09:56:02.463Z,1013.99
2019-04-28T09:57:02.453Z,1013.98
2019-04-28T09:58:02.441Z,1014.05
2019-04-28T09:59:02.464Z,1014.01
2019-04-28T10:00:02.421Z,1014.00
2019-04-28T10:01:02.408Z,1014.04
2019-04-28T10:02:02.400Z,1014.02
2019-04-28T10:03:02.441Z,1014.00
2019-04-28T10:04:02.376Z,1014.00
2019-04-28T10:05:02.372Z,1014.04
2019-04-28T10:06:02.355Z,1014.03
2019-04-28T10:07:02.342Z,1014.03
2019-04-28T10:08:02.332Z,1014.03
2019-04-28T10:09:02.323Z,1014.02
2019-04-28T10:10:02.312Z,1014.06
2019-04-28T10:11:02.307Z,1014.08
2019-04-28T10:12:02.287Z,1014.10
2019-04-28T10:13:02.276Z,1014.07
2019-04-28T10:14:02.265Z,1014.09
2019-04-28T10:15:02.255Z,1014.07
2019-04-28T10:16:02.244Z,1014.07
2019-04-28T10:17:02.241Z,1014.07
2019-04-28T10:18:02.222Z,1014.09
2019-04-28T10:19:02.211Z,1014.08
2019-04-28T10:20:02.202Z,1014.09
2019-04-28T10:21:02.191Z,1014.10
2019-04-28T10:22:02.179Z,1014.09
2019-04-28T10:23:02.196Z,1014.11
2019-04-28T10:24:02.156Z,1014.13
2019-04-28T10:25:02.145Z,1014.12
2019-04-28T10:26:02.134Z,1014.08
2019-04-28T10:27:02.141Z,1014.10
2019-04-28T10:28:02.111Z,1014.09
2019-04-28T10:29:02.131Z,1014.13
2019-04-28T10:30:02.097Z,1014.16
2019-04-28T10:31:02.079Z,1014.11
2019-04-28T10:32:02.069Z,1014.12
2019-04-28T10:33:02.056Z,1014.14
2019-04-28T10:34:02.046Z,1014.14
2019-04-28T10:35:02.055Z,1014.11
2019-04-28T10:36:02.026Z,1014.09
2019-04-28T10:37:02.014Z,1014.13
2019-04-28T10:38:02.002Z,1014.11
2019-04-28T10:39:01.990Z,1014.12
2019-04-28T10:40:01.980Z,1014.10
2019-04-28T10:41:01.975Z,1014.09
2019-04-28T10:42:01.958Z,1014.06
2019-04-28T10:43:01.947Z,1014.08
2019-04-28T10:44:01.936Z,1014.12
2019-04-28T10:45:01.926Z,1014.11
2019-04-28T10:46:01.914Z,1014.14
2019-04-28T10:47:01.913Z,1014.12
2019-04-28T10:48:01.894Z,1014.18
2019-04-28T10:49:01.881Z,1014.16
2019-04-28T10:50:01.869Z,1014.15
2019-04-28T10:51:01.858Z,1014.19
2019-04-28T10:52:01.849Z,1014.19
2019-04-28T10:53:01.870Z,1014.17
2019-04-28T10:54:01.826Z,1014.17
2019-04-28T10:55:01.818Z,1014.19
2019-04-28T10:56:01.804Z,1014.26
2019-04-28T10:57:01.792Z,1014.22
2019-04-28T10:58:01.782Z,1014.16
2019-04-28T10:59:01.782Z,1014.16
2019-04-28T11:00:01.761Z,1014.18
2019-04-28T11:01:01.748Z,1014.19
2019-04-28T11:02:01.739Z,1014.16
2019-04-28T11:03:01.727Z,1014.16
2019-04-28T11:04:01.716Z,1014.15
2019-04-28T11:05:08.121Z,1014.16
2019-04-28T11:06:02.691Z,1014.14
2019-04-28T11:07:01.684Z,1014.13
2019-04-28T11:08:01.672Z,1014.19
2019-04-28T11:09:01.661Z,1014.18
2019-04-28T11:10:01.651Z,1014.18
2019-04-28T11:11:01.645Z,1014.15
2019-04-28T11:12:01.627Z,1014.16
2019-04-28T11:13:01.616Z,1014.19
2019-04-28T11:14:01.607Z,1014.17
2019-04-28T11:15:01.620Z,1014.22
2019-04-28T11:16:01.583Z,1014.17
2019-04-28T11:17:01.581Z,1014.19
2019-04-28T11:18:01.563Z,1014.18
2019-04-28T11:19:01.556Z,1014.21
2019-04-28T11:20:01.539Z,1014.15
2019-04-28T11:21:01.532Z,1014.16
2019-04-28T11:22:01.518Z,1014.16
2019-04-28T11:23:01.513Z,1014.09
2019-04-28T11:24:01.496Z,1014.19
2019-04-28T11:25:01.484Z,1014.24
2019-04-28T11:26:01.476Z,1014.23
2019-04-28T11:27:01.463Z,1014.19
2019-04-28T11:28:01.455Z,1014.20
2019-04-28T11:29:01.480Z,1014.20
2019-04-28T11:30:01.430Z,1014.19
2019-04-28T11:31:01.420Z,1014.22
2019-04-28T11:32:01.410Z,1014.24
2019-04-28T11:33:01.398Z,1014.25
2019-04-28T11:34:01.391Z,1014.22
2019-04-28T11:35:01.399Z,1014.18
2019-04-28T11:36:01.370Z,1014.17
2019-04-28T11:37:01.354Z,1014.27
2019-04-28T11:38:01.351Z,1014.26
2019-04-28T11:39:01.331Z,1014.23
2019-04-28T11:40:01.333Z,1014.33
2019-04-28T11:41:01.319Z,1014.27
2019-04-28T11:42:01.304Z,1014.25
2019-04-28T11:43:01.294Z,1014.31
2019-04-28T11:44:01.276Z,1014.31
2019-04-28T11:45:01.268Z,1014.29
2019-04-28T11:46:01.255Z,1014.34
2019-04-28T11:47:01.272Z,1014.32
2019-04-28T11:48:01.232Z,1014.36
2019-04-28T11:49:01.221Z,1014.38
2019-04-28T11:50:01.213Z,1014.35
2019-04-28T11:51:01.200Z,1014.40
2019-04-28T11:52:01.191Z,1014.41
2019-04-28T11:53:01.187Z,1014.38
2019-04-28T11:54:01.167Z,1014.34
2019-04-28T11:55:01.157Z,1014.38
2019-04-28T11:56:01.146Z,1014.33
2019-04-28T11:57:01.135Z,1014.38
2019-04-28T11:58:01.123Z,1014.37
2019-04-28T11:59:01.121Z,1014.38
2019-04-28T12:00:01.101Z,1014.41
2019-04-28T12:01:01.091Z,1014.38
2019-04-28T12:02:01.079Z,1014.33
2019-04-28T12:03:01.074Z,1014.35
2019-04-28T12:04:01.058Z,1014.32
2019-04-28T12:05:01.083Z,1014.32